| time (UTC) | temp C | wind direction | speed KPH | gust KPH | rain 1hr cm | rain 24hr cm | rain mn cm | humidity % | barometer mb |
| 20260510121017 | 18 | 220 | 1.6 | 3.2 | 0.00 | 0.03 | 0.00 | 94 | 1012.7 |
| 20260510120017 | 18 | 133 | 1.6 | 4.8 | 0.00 | 0.03 | 0.00 | 94 | 1012.7 |
| 20260510115018 | 18 | 132 | 1.6 | 1.6 | 0.00 | 0.03 | 0.00 | 95 | 1012.6 |
| 20260510114018 | 18 | 40 | 1.6 | 3.2 | 0.00 | 0.03 | 0.00 | 95 | 1012.6 |
| 20260510113018 | 18 | 41 | 1.6 | 3.2 | 0.00 | 0.03 | 0.00 | 94 | 1012.4 |
| 20260510112018 | 18 | 41 | 3.2 | 4.8 | 0.00 | 0.03 | 0.00 | 94 | 1012.4 |
| 20260510111018 | 17 | 41 | 3.2 | 4.8 | 0.00 | 0.03 | 0.00 | 94 | 1012.3 |
| 20260510110039 | 18 | 41 | 1.6 | 3.2 | 0.00 | 0.03 | 0.00 | 93 | 1012.2 |
| 20260510105039 | 18 | 41 | 1.6 | 3.2 | 0.00 | 0.03 | 0.00 | 93 | 1012.1 |
| 20260510104016 | 18 | 218 | 3.2 | 4.8 | 0.00 | 0.03 | 0.00 | 93 | 1012.0 |
| 20260510103016 | 18 | 216 | 1.6 | 4.8 | 0.00 | 0.03 | 0.00 | 93 | 1012.1 |
| 20260510102016 | 18 | 42 | 1.6 | 1.6 | 0.00 | 0.03 | 0.00 | 93 | 1012.2 |
| 20260510101016 | 18 | 41 | 1.6 | 3.2 | 0.00 | 0.03 | 0.00 | 93 | 1012.3 |
| 20260510100016 | 18 | 41 | 1.6 | 3.2 | 0.00 | 0.03 | 0.00 | 92 | 1012.2 |
| 20260510095017 | 18 | 41 | 1.6 | 1.6 | 0.00 | 0.03 | 0.00 | 92 | 1012.2 |
| 20260510094017 | 18 | 32 | 3.2 | 9.7 | 0.00 | 0.03 | 0.00 | 91 | 1012.2 |
| 20260510093037 | 19 | 38 | 4.8 | 9.7 | 0.00 | 0.03 | 0.00 | 90 | 1012.1 |
| 20260510092037 | 19 | 23 | 4.8 | 11.3 | 0.00 | 0.03 | 0.00 | 90 | 1012.0 |
| 20260510091017 | 19 | 35 | 6.4 | 14.5 | 0.00 | 0.03 | 0.00 | 90 | 1011.9 |
| 20260510090017 | 20 | 39 | 1.6 | 11.3 | 0.00 | 0.03 | 0.00 | 88 | 1012.0 |
| 20260510085017 | 20 | 338 | 3.2 | 6.4 | 0.00 | 0.03 | 0.00 | 88 | 1011.9 |
| 20260510084017 | 20 | 34 | 1.6 | 8.0 | 0.00 | 0.03 | 0.00 | 87 | 1011.8 |
| 20260510083018 | 21 | 20 | 0.0 | 3.2 | 0.00 | 0.03 | 0.00 | 85 | 1011.8 |
| 20260510082018 | 21 | 213 | 0.0 | 3.2 | 0.00 | 0.03 | 0.00 | 85 | 1011.9 |
| 20260510081038 | 21 | 20 | 1.6 | 4.8 | 0.00 | 0.03 | 0.00 | 86 | 1011.9 |
| 20260510080038 | 21 | 0 | 1.6 | 4.8 | 0.00 | 0.03 | 0.00 | 86 | 1011.9 |
| 20260510075018 | 21 | 13 | 0.0 | 3.2 | 0.00 | 0.03 | 0.00 | 83 | 1011.8 |
| 20260510074018 | 22 | 207 | 3.2 | 6.4 | 0.00 | 0.03 | 0.00 | 82 | 1011.9 |
| 20260510073016 | 21 | 258 | 1.6 | 4.8 | 0.00 | 0.03 | 0.00 | 83 | 1012.1 |
| 20260510072016 | 21 | 180 | 0.0 | 3.2 | 0.00 | 0.03 | 0.00 | 83 | 1012.0 |
| 20260510071016 | 22 | 286 | 0.0 | 3.2 | 0.00 | 0.03 | 0.00 | 82 | 1012.0 |
| 20260510070016 | 22 | 218 | 3.2 | 4.8 | 0.00 | 0.03 | 0.00 | 82 | 1012.1 |
| 20260510065016 | 22 | 155 | 3.2 | 6.4 | 0.00 | 0.03 | 0.00 | 81 | 1012.1 |
| 20260510064017 | 22 | 143 | 3.2 | 6.4 | 0.00 | 0.03 | 0.00 | 80 | 1012.2 |
| 20260510063037 | 22 | 148 | 3.2 | 4.8 | 0.00 | 0.03 | 0.00 | 80 | 1012.2 |
| 20260510062017 | 22 | 139 | 3.2 | 4.8 | 0.00 | 0.03 | 0.00 | 81 | 1012.2 |
| 20260510061017 | 22 | 61 | 0.0 | 3.2 | 0.00 | 0.03 | 0.00 | 80 | 1012.2 |
| 20260510060017 | 22 | 133 | 0.0 | 4.8 | 0.00 | 0.03 | 0.00 | 79 | 1012.0 |
| 20260510055037 | 22 | 67 | 0.0 | 1.6 | 0.00 | 0.03 | 0.00 | 79 | 1011.9 |
| 20260510054018 | 22 | 154 | 1.6 | 6.4 | 0.00 | 0.03 | 0.00 | 82 | 1011.8 |
| 20260510053018 | 22 | 12 | 1.6 | 3.2 | 0.00 | 0.03 | 0.00 | 81 | 1011.8 |
| 20260510052018 | 23 | 10 | 0.0 | 3.2 | 0.00 | 0.03 | 0.00 | 78 | 1011.7 |
| 20260510051018 | 24 | 192 | 1.6 | 3.2 | 0.00 | 0.03 | 0.00 | 73 | 1011.6 |
| 20260510045016 | 23 | 249 | 0.0 | 1.6 | 0.00 | 0.03 | 0.03 | 75 | 1011.4 |
| 20260510044039 | 24 | 92 | 0.0 | 3.2 | 0.00 | 0.03 | 0.03 | 74 | 1011.4 |
| 20260510043016 | 24 | 137 | 0.0 | 4.8 | 0.00 | 0.03 | 0.03 | 74 | 1011.4 |
| 20260510042016 | 24 | 185 | 4.8 | 4.8 | 0.00 | 0.03 | 0.03 | 73 | 1011.3 |
| 20260510041016 | 25 | 149 | 0.0 | 3.2 | 0.00 | 0.03 | 0.03 | 71 | 1011.2 |
| 20260510040016 | 25 | 162 | 3.2 | 4.8 | 0.00 | 0.03 | 0.03 | 71 | 1011.2 |
| 20260510035016 | 25 | 178 | 0.0 | 3.2 | 0.00 | 0.03 | 0.03 | 71 | 1011.3 |
| 20260510034037 | 25 | 208 | 1.6 | 3.2 | 0.00 | 0.03 | 0.03 | 71 | 1011.2 |
| 20260510033057 | 25 | 178 | 3.2 | 4.8 | 0.00 | 0.03 | 0.03 | 70 | 1011.1 |
| 20260510032017 | 25 | 136 | 1.6 | 4.8 | 0.00 | 0.03 | 0.03 | 70 | 1011.1 |
| 20260510031017 | 25 | 149 | 3.2 | 4.8 | 0.00 | 0.03 | 0.03 | 69 | 1011.0 |
| 20260510030017 | 25 | 99 | 0.0 | 1.6 | 0.00 | 0.03 | 0.03 | 69 | 1010.8 |
| 20260510025018 | 26 | 131 | 0.0 | 3.2 | 0.00 | 0.03 | 0.03 | 68 | 1010.6 |
| 20260510024017 | 26 | 133 | 1.6 | 4.8 | 0.00 | 0.03 | 0.03 | 67 | 1010.5 |
| 20260510023018 | 26 | 166 | 4.8 | 8.0 | 0.00 | 0.03 | 0.03 | 65 | 1010.3 |
| 20260510022038 | 27 | 154 | 3.2 | 6.4 | 0.00 | 0.03 | 0.03 | 64 | 1010.2 |
| 20260510021018 | 27 | 166 | 4.8 | 8.0 | 0.00 | 0.03 | 0.03 | 63 | 1010.1 |
| 20260510020016 | 27 | 144 | 3.2 | 6.4 | 0.00 | 0.03 | 0.03 | 62 | 1009.9 |
| 20260510015016 | 27 | 131 | 3.2 | 8.0 | 0.00 | 0.03 | 0.03 | 61 | 1009.8 |
| 20260510014016 | 28 | 143 | 4.8 | 8.0 | 0.00 | 0.03 | 0.03 | 60 | 1009.5 |
| 20260510013016 | 28 | 142 | 4.8 | 8.0 | 0.00 | 0.03 | 0.03 | 58 | 1009.3 |
| 20260510012017 | 28 | 147 | 3.2 | 8.0 | 0.00 | 0.03 | 0.03 | 57 | 1009.2 |
| 20260510011017 | 29 | 193 | 4.8 | 9.7 | 0.00 | 0.03 | 0.03 | 56 | 1008.9 |
| 20260510010017 | 30 | 201 | 8.0 | 11.3 | 0.00 | 0.03 | 0.03 | 54 | 1008.8 |
| 20260510005017 | 30 | 186 | 9.7 | 16.1 | 0.00 | 0.03 | 0.03 | 54 | 1008.8 |
| 20260510004037 | 30 | 183 | 9.7 | 14.5 | 0.00 | 0.03 | 0.03 | 52 | 1008.7 |
| 20260510003017 | 31 | 180 | 11.3 | 19.3 | 0.00 | 0.03 | 0.03 | 51 | 1008.6 |
| 20260510002017 | 31 | 176 | 8.0 | 16.1 | 0.00 | 0.03 | 0.03 | 49 | 1008.6 |
| 20260510001017 | 31 | 179 | 9.7 | 17.7 | 0.00 | 0.03 | 0.03 | 48 | 1008.7 |
| 20260510000018 | 31 | 186 | 9.7 | 17.7 | 0.00 | 0.03 | 0.03 | 48 | 1008.6 |
| 20260509235018 | 31 | 183 | 8.0 | 14.5 | 0.00 | 0.03 | 0.03 | 47 | 1008.6 |
| 20260509234018 | 32 | 163 | 9.7 | 14.5 | 0.00 | 0.03 | 0.03 | 47 | 1008.5 |
| 20260509233019 | 32 | 187 | 9.7 | 16.1 | 0.00 | 0.03 | 0.03 | 46 | 1008.5 |
| 20260509232039 | 32 | 181 | 6.4 | 12.9 | 0.00 | 0.03 | 0.03 | 44 | 1008.5 |
| 20260509231015 | 32 | 187 | 9.7 | 14.5 | 0.00 | 0.03 | 0.03 | 46 | 1008.5 |
| 20260509230016 | 32 | 172 | 8.0 | 12.9 | 0.00 | 0.03 | 0.03 | 46 | 1008.5 |
| 20260509225016 | 32 | 207 | 8.0 | 12.9 | 0.00 | 0.03 | 0.03 | 41 | 1008.5 |
| 20260509224016 | 32 | 173 | 6.4 | 14.5 | 0.00 | 0.03 | 0.03 | 46 | 1008.5 |
| 20260509223016 | 32 | 209 | 8.0 | 14.5 | 0.00 | 0.03 | 0.03 | 47 | 1008.5 |
| 20260509222016 | 32 | 160 | 6.4 | 14.5 | 0.00 | 0.03 | 0.03 | 46 | 1008.6 |
| 20260509221017 | 31 | 158 | 6.4 | 11.3 | 0.00 | 0.03 | 0.03 | 48 | 1008.6 |
| 20260509220017 | 32 | 223 | 6.4 | 11.3 | 0.00 | 0.03 | 0.03 | 44 | 1008.6 |
| 20260509215018 | 32 | 147 | 6.4 | 11.3 | 0.00 | 0.03 | 0.03 | 47 | 1008.6 |
| 20260509214017 | 32 | 200 | 9.7 | 16.1 | 0.00 | 0.03 | 0.03 | 46 | 1008.7 |
| 20260509213018 | 32 | 230 | 8.0 | 14.5 | 0.00 | 0.03 | 0.03 | 46 | 1008.8 |
| 20260509212017 | 32 | 215 | 6.4 | 11.3 | 0.00 | 0.03 | 0.03 | 46 | 1008.9 |
| 20260509211018 | 32 | 209 | 11.3 | 22.5 | 0.00 | 0.03 | 0.03 | 48 | 1008.9 |
| 20260509210018 | 32 | 230 | 9.7 | 19.3 | 0.00 | 0.03 | 0.03 | 45 | 1009.1 |
| 20260509205019 | 32 | 236 | 9.7 | 16.1 | 0.00 | 0.03 | 0.03 | 46 | 1009.3 |
| 20260509204139 | 32 | 220 | 4.8 | 16.1 | 0.00 | 0.03 | 0.03 | 44 | 1009.5 |
| 20260509203018 | 31 | 193 | 6.4 | 16.1 | 0.00 | 0.03 | 0.03 | 47 | 1009.6 |
| 20260509202016 | 31 | 236 | 6.4 | 14.5 | 0.00 | 0.03 | 0.03 | 49 | 1009.8 |
| 20260509201016 | 31 | 238 | 8.0 | 16.1 | 0.00 | 0.03 | 0.03 | 49 | 1010.0 |
| 20260509200016 | 31 | 228 | 9.7 | 16.1 | 0.00 | 0.03 | 0.03 | 50 | 1010.2 |
| 20260509195016 | 31 | 230 | 8.0 | 19.3 | 0.00 | 0.03 | 0.03 | 50 | 1010.3 |
| 20260509194036 | 31 | 209 | 9.7 | 17.7 | 0.00 | 0.03 | 0.03 | 50 | 1010.4 |
| 20260509193017 | 31 | 241 | 6.4 | 14.5 | 0.00 | 0.03 | 0.03 | 49 | 1010.5 |
| 20260509192017 | 31 | 205 | 4.8 | 11.3 | 0.00 | 0.03 | 0.03 | 53 | 1010.6 |
| 20260509191017 | 30 | 201 | 8.0 | 14.5 | 0.00 | 0.03 | 0.03 | 52 | 1010.7 |
| 20260509190017 | 30 | 190 | 4.8 | 11.3 | 0.00 | 0.03 | 0.03 | 56 | 1010.8 |
| 20260509185037 | 30 | 212 | 9.7 | 17.7 | 0.00 | 0.03 | 0.03 | 57 | 1010.9 |
| 20260509184037 | 30 | 190 | 6.4 | 16.1 | 0.00 | 0.03 | 0.03 | 57 | 1011.0 |
| 20260509183018 | 29 | 222 | 8.0 | 16.1 | 0.00 | 0.03 | 0.03 | 58 | 1011.2 |
| 20260509182016 | 29 | 240 | 9.7 | 14.5 | 0.00 | 0.03 | 0.03 | 62 | 1011.3 |
| 20260509181016 | 29 | 208 | 6.4 | 14.5 | 0.00 | 0.03 | 0.03 | 60 | 1011.4 |
| 20260509180016 | 29 | 252 | 4.8 | 11.3 | 0.00 | 0.03 | 0.03 | 62 | 1011.6 |
| 20260509175017 | 28 | 242 | 9.7 | 17.7 | 0.00 | 0.03 | 0.03 | 62 | 1011.7 |
| 20260509174017 | 28 | 252 | 8.0 | 16.1 | 0.00 | 0.03 | 0.03 | 65 | 1011.8 |
| 20260509173036 | 28 | 180 | 4.8 | 11.3 | 0.00 | 0.03 | 0.03 | 64 | 1012.0 |
| 20260509172016 | 27 | 213 | 4.8 | 9.7 | 0.00 | 0.03 | 0.03 | 67 | 1012.0 |
| 20260509171037 | 27 | 161 | 6.4 | 14.5 | 0.00 | 0.03 | 0.03 | 69 | 1011.9 |
| 20260509170016 | 27 | 168 | 11.3 | 17.7 | 0.00 | 0.03 | 0.03 | 69 | 1012.0 |
| 20260509165016 | 27 | 152 | 9.7 | 14.5 | 0.00 | 0.03 | 0.03 | 72 | 1012.1 |
| 20260509164017 | 26 | 205 | 9.7 | 19.3 | 0.00 | 0.03 | 0.03 | 75 | 1012.3 |
| 20260509163017 | 26 | 174 | 11.3 | 16.1 | 0.03 | 0.03 | 0.03 | 74 | 1012.2 |
| 20260509162017 | 26 | 165 | 11.3 | 19.3 | 0.03 | 0.03 | 0.03 | 75 | 1012.0 |
| 20260509161017 | 26 | 179 | 12.9 | 20.9 | 0.03 | 0.03 | 0.03 | 75 | 1012.0 |
| 20260509160018 | 25 | 180 | 11.3 | 20.9 | 0.03 | 0.03 | 0.03 | 79 | 1012.2 |
| 20260509155018 | 25 | 167 | 8.0 | 14.5 | 0.03 | 0.03 | 0.03 | 80 | 1012.3 |
| 20260509154018 | 25 | 220 | 11.3 | 17.7 | 0.03 | 0.03 | 0.03 | 81 | 1012.3 |
| 20260509153038 | 25 | 184 | 8.0 | 14.5 | 0.00 | 0.00 | 0.00 | 84 | 1012.2 |
| 20260509152018 | 24 | 191 | 9.7 | 19.3 | 0.00 | 0.00 | 0.00 | 83 | 1012.4 |
| 20260509151018 | 23 | 169 | 6.4 | 11.3 | 0.00 | 0.00 | 0.00 | 86 | 1012.6 |
| 20260509150018 | 23 | 169 | 6.4 | 9.7 | 0.00 | 0.00 | 0.00 | 87 | 1012.7 |
| 20260509145019 | 23 | 198 | 6.4 | 8.0 | 0.00 | 0.00 | 0.00 | 88 | 1012.6 |
| 20260509144016 | 23 | 213 | 4.8 | 8.0 | 0.00 | 0.00 | 0.00 | 87 | 1012.7 |
| 20260509143016 | 23 | 223 | 3.2 | 8.0 | 0.00 | 0.08 | 0.00 | 89 | 1012.5 |
| 20260509142016 | 23 | 180 | 4.8 | 9.7 | 0.00 | 0.08 | 0.00 | 88 | 1012.4 |
| 20260509141016 | 23 | 152 | 0.0 | 4.8 | 0.00 | 0.08 | 0.00 | 89 | 1012.3 |
| 20260509140036 | 23 | 30 | 0.0 | 1.6 | 0.00 | 0.08 | 0.00 | 91 | 1012.2 |
| 20260509135017 | 23 | 35 | 3.2 | 6.4 | 0.00 | 0.08 | 0.00 | 91 | 1012.1 |
| 20260509134037 | 23 | 258 | 3.2 | 6.4 | 0.00 | 0.08 | 0.00 | 93 | 1011.9 |
| 20260509133022 | 22 | 345 | 1.6 | 3.2 | 0.00 | 0.08 | 0.00 | 95 | 1012.1 |
| 20260509132021 | 22 | 247 | 1.6 | 3.2 | 0.00 | 0.08 | 0.00 | 96 | 1012.2 |
| 20260509131022 | 22 | 188 | 3.2 | 4.8 | 0.00 | 0.08 | 0.00 | 96 | 1012.4 |
| 20260509130022 | 22 | 359 | 0.0 | 3.2 | 0.00 | 0.08 | 0.00 | 96 | 1012.3 |
| 20260509125018 | 22 | 357 | 1.6 | 4.8 | 0.00 | 0.08 | 0.00 | 96 | 1012.2 |
| 20260509124019 | 22 | 145 | 1.6 | 6.4 | 0.00 | 0.08 | 0.00 | 96 | 1011.9 |
| 20260509123019 | 22 | 172 | 1.6 | 4.8 | 0.00 | 0.08 | 0.00 | 97 | 1012.0 |
| 20260509122019 | 22 | 73 | 3.2 | 6.4 | 0.00 | 0.08 | 0.00 | 97 | 1011.8 |